logo tempoitalia

Diretta Meteo Arequipa, Perulunedì 31 agosto ore 00:00

Mappa
Sereno 11 °C Sereno 24 Ore: T.min 10 T.max 21
Ponente Est/Nord-Est Km/h 16.7 Punto di rugiada: -9 °C Umidità: 23% Visibilità: 10 Km
Il sole sorge alle: 05:52 Il sole tramonta alle: 17:40
31 Agosto 2026 00:00 tempo osservato: Sereno Sereno 11 23 1029 vento: Nord E/NE 16.7
30 Agosto 2026 23:00 tempo osservato: Sereno Sereno 13 30 1029 vento: Nord N/NE 11.1
30 Agosto 2026 22:00 tempo osservato: Sereno Sereno 13 32 1029 vento: Nord N/NE 13
30 Agosto 2026 21:00 tempo osservato: Sereno Sereno 13 35 1029 vento: Nord N/NE 7.4
30 Agosto 2026 20:00 tempo osservato: Sereno Sereno 13 40 1029 vento: Nord E 9.3
30 Agosto 2026 19:00 tempo osservato: Sereno Sereno 14 47 1028 vento: Nord N 1.8
30 Agosto 2026 18:00 tempo osservato: Sereno Sereno 16 41 1028 vento: Nord O 9.3
30 Agosto 2026 17:00 tempo osservato: Sereno Sereno 18 34 1028 vento: Nord O/SO 13
30 Agosto 2026 16:00 tempo osservato: Sereno Sereno 19 29 1027 vento: Nord O/SO 14.8
30 Agosto 2026 15:00 tempo osservato: Sereno Sereno 21 22 1027 vento: Nord O 16.7
30 Agosto 2026 14:00 tempo osservato: Sereno Sereno 21 19 1028 vento: Nord O/SO 14.8
30 Agosto 2026 13:00 tempo osservato: Sereno Sereno 21 19 1028 vento: Nord O/SO 16.7
30 Agosto 2026 12:00 tempo osservato: Sereno Sereno 21 16 1028 vento: Nord O 13
30 Agosto 2026 11:00 tempo osservato: Sereno Sereno 21 16 1029 vento: Nord SO 11.1
30 Agosto 2026 10:00 tempo osservato: Sereno Sereno 20 16 1029 vento: Nord SO 11.1
30 Agosto 2026 09:00 tempo osservato: Sereno Sereno 18 22 1029 vento: Nord N 5.5
30 Agosto 2026 08:00 tempo osservato: Sereno Sereno 17 23 1028 vento: Nord N 5.5
30 Agosto 2026 07:00 tempo osservato: Sereno Sereno 12 32 1028 vento: Nord N/NE 11.1
30 Agosto 2026 06:00 tempo osservato: Sereno Sereno 10 39 1027 vento: Nord NE 13
30 Agosto 2026 05:00 tempo osservato: Sereno Sereno 10 39 1027 vento: Nord N/NE 11.1
30 Agosto 2026 04:00 tempo osservato: Sereno Sereno 11 40 1026 vento: Nord N/NE 11.1
30 Agosto 2026 03:00 tempo osservato: Sereno Sereno 11 40 1027 vento: Nord N/NE 11.1
30 Agosto 2026 02:00 tempo osservato: Sereno Sereno 10 46 1027 vento: Nord N/NE 9.3
30 Agosto 2026 01:00 tempo osservato: Sereno Sereno 10 46 1028 vento: Nord N 9.3